Portada
METAR-TAF:

METAR-TAF

Aeroports :

Resolute, Nunavut, Canadà

latitud: 74-43N, longitud: 094-59W, altitud: 67 m

Observació

L'informe es va fer fa 57 minuts, a les 08:00 UTC
Vent 2 kt del Est
Temperatura -28°C
Humitat 75%
Pressió 1023 hPa
Visibilitat: 24.1 km
Cel clar
cristalls de gel

METAR: CYRB 200800Z 10002KT 15SM IC SKC M28/M31 A3021 RMK SLP244

Hora: 02:57 (08:57 UTC)

Pronòstic

L'informe es va fer fa 3 hores i 16 minuts, a les 05:41 UTC
Pronòstic vàlid del 20 a les 06 UTC al 21 a les 06 UTC
Vent 6 kt del Sud/Sud-Est
Visibilitat: 10 km
Cel clar
cristalls de gel
Evolucionant progressivament
l' 20 a les 10 UTC al 20 a les 12 UTC
Vent 3 kt amb direcció variable
Evolucionant progressivament
l' 20 a les 18 UTC al 20 a les 20 UTC
Vent 10 kt del Nord-Oest

TAF: CYRB 200541Z 2006/2106 15006KT P6SM IC SKC BECMG 2010/2012 VRB03KT BECMG 2018/2020 31010KT RMK NXT FCST BY 201200Z

Observacions i pronòstics meteorològics de més de 4000 aeroports (METAR i TAF).

Les estacions disponibles són els punts grocs i vermells al mapa.

Posi el ratolí al punt desitjat per veure el nom de l'estació.

Feu clic per veure les observacions i els pronòstics meteorològics.

Per canviar el mapa: feu clic els botons verds amb una creu de color negre per apropar; al botó verd amb un guió per allunyar la imatge; o en les fletxes verdes per a mapes adjacents.


METAR-TAF: